GMMI

Mogador Airport

Essaouira, Morocco
METAR GMMI 231800Z 32004KT 8000 SCT016TCU 31/15 Q1016 NOSIG
Observed Flight Rules
Sep-23 @ 18:00 UTC (10 hours ago) Marginal Visual Flight Rules
Wind Visibility Clouds
320° at 4 knots 7,998 meters
  • Scattered at 1,600' AGL
Temperatures Readings
Current 31°C / 88°F
Dewpoint 15°C / 59°F
Humidity 38%
Altimeter 30" Hg
Pressure 1016 hPa
Elevation 8
METAR GMMI 231800Z 32004KT 8000 SCT016TCU 31/15 Q1016 NOSIG
Observed Flight Rules
Sep-23 @ 18:00 UTC
(10 hours ago)
MVFR
Wind Visibility
320° at 4 knots 7,998 meters
Clouds
  • Scattered at 1,600' AGL
Temperature Dewpoint
31°C / 88°F 15°C / 59°F
Humidity Altimeter Pressure
38% 30" Hg 1016 hPa